< < Back
Terminal Aerodrome Forecast


Current Version              Previous Versions:   1  2  3  4  5  6  7  8  9  

Terminal Aerodrome Forecast

375
FTUS42 KMLB 182100 AAB
TAFMCO
TAF AMD
KMCO 182155Z 1822/1918 18012KT P6SM VCSH SCT035 BKN060
      TEMPO 1822/1824 6SM -SHRA BKN035
     FM190300 18009KT P6SM VCSH BKN030 OVC050
     FM191300 22010KT P6SM VCSH SCT015 OVC050=



Latest METAR

551
SAUS70 KWBC 190200 RRB
MTRMCO
METAR KMCO 190153Z 12006KT 10SM BKN065 BKN120 21/19 A2996 RMK AO2 SLP145
T02060189


USA.gov is the U.S. government's official web portal to all federal, state and local government web resources and services.